Time;durP1;ratioP1;P1;durP2;ratioP2;P2;SDS_P1;SDS_P2;PMS_P1;PMS_P2;Temp;Humidity;BMP_temperature;BMP_pressure;BME280_temperature;BME280_humidity;BME280_pressure;Samples;Min_cycle;Max_cycle;Signal;HPM_P1;HPM_P2
2021/11/02 00:00:13;;;;;;;62.13;44.83;;;;;;;9.46;86.69;98137.28;5085514;28;20256;-82
2021/11/02 00:02:44;;;;;;;59.57;46.20;;;;;;;9.37;86.43;98115.53;5070287;28;20209;-82
2021/11/02 00:05:17;;;;;;;61.53;44.30;;;;;;;9.40;86.48;98125.72;5093178;23;20284;-82
2021/11/02 00:07:46;;;;;;;61.60;45.63;;;;;;;9.38;86.57;98121.69;5086085;28;20220;-82
2021/11/02 00:10:18;;;;;;;60.73;44.23;;;;;;;9.28;87.11;98106.31;5070527;28;20212;-82
2021/11/02 00:12:45;;;;;;;62.53;44.10;;;;;;;9.37;87.09;98104.84;5083984;28;20272;-82
2021/11/02 00:15:20;;;;;;;57.93;44.03;;;;;;;9.34;86.70;98097.28;5068987;28;20323;-83
2021/11/02 00:17:57;;;;;;;58.93;44.27;;;;;;;9.28;87.13;98074.25;5070386;28;20242;-82
2021/11/02 00:20:25;;;;;;;60.70;45.27;;;;;;;9.26;86.41;98073.69;5069348;28;20609;-82
2021/11/02 00:22:57;;;;;;;62.30;45.70;;;;;;;9.15;86.69;98064.72;5070426;28;20551;-83
2021/11/02 00:25:30;;;;;;;61.37;44.43;;;;;;;9.27;87.03;98083.31;5077186;23;20302;-82
2021/11/02 00:28:01;;;;;;;61.30;44.97;;;;;;;9.26;87.26;98076.34;5085248;28;20256;-82
2021/11/02 00:30:31;;;;;;;63.37;46.17;;;;;;;9.28;87.50;98067.00;5097042;28;20240;-82
2021/11/02 00:32:59;;;;;;;61.63;44.90;;;;;;;9.26;87.23;98066.47;5068218;28;20255;-82
2021/11/02 00:35:27;;;;;;;60.93;45.30;;;;;;;9.28;87.58;98066.22;5067818;28;20320;-82
2021/11/02 00:37:55;;;;;;;62.03;46.27;;;;;;;9.23;87.40;98055.47;5066133;28;20666;-82
2021/11/02 00:40:24;;;;;;;61.40;44.27;;;;;;;9.27;87.40;98049.38;5083823;28;20243;-82
2021/11/02 00:42:56;;;;;;;63.80;46.43;;;;;;;9.31;86.84;98041.66;5099899;28;20295;-83
2021/11/02 00:45:31;;;;;;;61.40;44.83;;;;;;;9.36;86.29;98027.56;5084503;28;20239;-82
2021/11/02 00:48:23;;;;;;;62.33;45.63;;;;;;;9.33;85.65;98036.09;5084233;28;20274;-82
2021/11/02 00:50:53;;;;;;;60.37;43.10;;;;;;;9.27;86.19;98033.34;5068126;28;20256;-82
2021/11/02 00:53:21;;;;;;;62.70;45.33;;;;;;;9.27;86.73;98045.91;5051085;28;20233;-82
2021/11/02 00:55:48;;;;;;;62.23;45.27;;;;;;;9.14;86.77;98024.91;5085147;28;20235;-82
2021/11/02 00:58:19;;;;;;;62.37;45.13;;;;;;;9.13;87.22;98033.97;5083747;28;20229;-83
2021/11/02 01:00:52;;;;;;;61.40;45.47;;;;;;;9.16;87.74;98039.63;5068856;28;20326;-82
2021/11/02 01:03:22;;;;;;;65.00;45.70;;;;;;;9.18;87.96;98036.72;5084999;28;20232;-82
2021/11/02 01:05:53;;;;;;;60.13;45.03;;;;;;;9.13;88.23;98040.13;5043247;28;20229;-83
2021/11/02 01:08:21;;;;;;;62.50;45.73;;;;;;;9.11;88.39;98028.88;5068801;28;20220;-82
2021/11/02 01:10:54;;;;;;;63.50;45.87;;;;;;;9.15;88.32;98029.16;5085318;28;20211;-82
2021/11/02 01:13:22;;;;;;;65.30;45.70;;;;;;;9.11;88.50;98028.06;5085150;28;20292;-83
2021/11/02 01:15:51;;;;;;;63.67;45.97;;;;;;;9.11;88.20;98020.03;5069705;28;20232;-83
2021/11/02 01:18:20;;;;;;;63.27;46.00;;;;;;;9.19;88.31;98019.63;5065562;28;20225;-82
2021/11/02 01:20:52;;;;;;;61.00;44.83;;;;;;;9.22;88.56;98016.44;5084342;28;20227;-82
2021/11/02 01:23:20;;;;;;;64.23;46.20;;;;;;;9.11;88.31;98007.50;5086227;28;20295;-82
2021/11/02 01:25:49;;;;;;;60.40;44.63;;;;;;;9.16;88.58;98020.09;5068839;28;20219;-83
2021/11/02 01:28:16;;;;;;;58.83;44.50;;;;;;;9.27;88.89;98036.03;5069278;28;20273;-84
2021/11/02 01:30:45;;;;;;;62.87;45.27;;;;;;;9.24;88.76;98017.78;5089652;28;20225;-82
2021/11/02 01:33:17;;;;;;;59.67;44.23;;;;;;;9.62;87.21;98016.88;5087234;28;20185;-82
2021/11/02 01:35:51;;;;;;;59.00;44.90;;;;;;;9.40;86.57;98017.97;5087238;28;20269;-82
2021/11/02 01:38:22;;;;;;;59.17;44.10;;;;;;;9.26;87.84;98015.69;5071100;28;20232;-83
2021/11/02 01:41:06;;;;;;;60.07;44.53;;;;;;;9.23;88.16;98018.88;5088745;28;20224;-82
2021/11/02 01:43:36;;;;;;;58.50;42.23;;;;;;;9.20;88.18;98000.66;5072610;28;20236;-82
2021/11/02 01:46:24;;;;;;;60.03;44.53;;;;;;;9.26;88.58;98010.34;5073253;28;20224;-83
2021/11/02 01:48:53;;;;;;;60.40;43.57;;;;;;;9.21;88.70;97996.94;5088819;28;20219;-82
2021/11/02 01:51:25;;;;;;;59.73;44.37;;;;;;;9.24;88.95;97993.75;5105152;28;20224;-82
2021/11/02 01:53:52;;;;;;;61.10;45.07;;;;;;;9.27;88.92;97979.91;5073190;28;20267;-83
2021/11/02 01:56:26;;;;;;;52.73;40.60;;;;;;;9.57;87.43;97970.56;5071063;28;20216;-82
2021/11/02 01:59:01;;;;;;;53.07;40.40;;;;;;;9.41;87.49;97944.75;5070185;28;20208;-82
2021/11/02 02:01:57;;;;;;;52.30;40.13;;;;;;;9.35;87.74;97948.44;5102334;28;20525;-81
2021/11/02 02:04:55;;;;;;;50.47;37.73;;;;;;;9.26;88.40;97945.41;5060057;28;20250;-82
2021/11/02 02:07:50;;;;;;;52.57;39.57;;;;;;;9.37;88.82;97952.47;5088905;28;20232;-82
2021/11/02 02:10:37;;;;;;;53.03;40.53;;;;;;;9.28;88.35;97951.31;5070169;28;20832;-81
2021/11/02 02:13:22;;;;;;;51.13;38.23;;;;;;;9.20;88.60;97954.41;5084579;28;20648;-82
2021/11/02 02:16:15;;;;;;;50.00;37.90;;;;;;;9.21;88.80;97961.38;5069002;28;20220;-82
2021/11/02 02:18:51;;;;;;;41.83;31.13;;;;;;;9.21;89.30;97982.75;5070857;28;20658;-81
2021/11/02 02:21:38;;;;;;;46.80;34.13;;;;;;;9.20;89.45;97992.63;5084878;28;20236;-81
2021/11/02 02:24:30;;;;;;;45.40;33.83;;;;;;;9.23;89.43;97996.69;5058180;28;20224;-82
2021/11/02 02:27:25;;;;;;;31.33;24.37;;;;;;;9.32;89.08;97989.84;5059820;28;20233;-82
2021/11/02 02:30:15;;;;;;;16.07;12.67;;;;;;;9.31;87.42;97988.22;5084737;28;20248;-81
2021/11/02 02:32:47;;;;;;;12.10;9.40;;;;;;;9.17;87.30;97987.81;5084128;28;20327;-81
2021/11/02 02:35:38;;;;;;;10.70;8.37;;;;;;;9.11;87.49;97991.47;5085383;28;20220;-82
2021/11/02 02:38:08;;;;;;;7.07;6.13;;;;;;;9.07;87.08;98005.56;5087453;28;20233;-82
2021/11/02 02:40:39;;;;;;;6.23;5.27;;;;;;;8.94;87.41;97997.94;5069493;28;20255;-82
2021/11/02 02:43:06;;;;;;;8.13;6.10;;;;;;;8.95;87.77;98018.25;5085350;28;20596;-82
2021/11/02 02:45:35;;;;;;;7.90;6.83;;;;;;;8.99;87.76;98004.16;5086230;28;20251;-82
2021/11/02 02:48:03;;;;;;;7.40;5.50;;;;;;;8.96;87.19;98001.19;5084369;28;20225;-81
2021/11/02 02:50:32;;;;;;;7.17;5.10;;;;;;;8.93;87.09;98020.34;5084057;28;20262;-82
2021/11/02 02:53:02;;;;;;;3.87;3.10;;;;;;;8.91;86.87;98011.78;5084346;28;20228;-82
2021/11/02 02:55:31;;;;;;;4.40;2.70;;;;;;;8.92;86.94;98032.09;5084566;28;20224;-82
2021/11/02 02:58:18;;;;;;;1.83;1.53;;;;;;;8.96;85.92;98035.91;5101872;28;20223;-82
2021/11/02 03:00:47;;;;;;;1.73;1.30;;;;;;;8.82;85.77;98022.06;5088066;28;20217;-82
2021/11/02 03:03:18;;;;;;;1.20;0.90;;;;;;;8.87;85.48;98032.00;5105482;28;20254;-81
2021/11/02 03:05:53;;;;;;;1.83;0.70;;;;;;;8.77;85.22;98025.50;5088509;28;20643;-82
2021/11/02 03:08:20;;;;;;;0.90;0.50;;;;;;;8.84;84.21;98038.66;5095047;28;20255;-82
2021/11/02 03:10:53;;;;;;;0.60;0.60;;;;;;;8.73;84.66;98039.56;5081540;22;20229;-82
2021/11/02 03:13:33;;;;;;;0.87;0.50;;;;;;;8.61;83.79;98021.00;5109502;28;20184;-82
2021/11/02 03:16:15;;;;;;;1.13;0.30;;;;;;;8.64;83.36;98046.38;5077917;28;20729;-82
2021/11/02 03:49:52;;;;;;;1.17;0.20;;;;;;;8.04;80.90;98060.38;5072815;28;20216;-81
2021/11/02 03:55:58;;;;;;;0.33;0.23;;;;;;;7.99;80.48;98057.63;5106011;28;20228;-82
2021/11/02 03:58:37;;;;;;;0.40;0.30;;;;;;;7.79;80.88;98046.63;5108729;22;20291;-82
2021/11/02 04:01:33;;;;;;;0.60;0.13;;;;;;;7.79;80.70;98067.94;5072838;22;20233;-82
2021/11/02 04:33:12;;;;;;;0.53;0.10;;;;;;;7.38;81.45;98061.03;5070967;28;20236;-82
2021/11/02 05:57:48;;;;;;;0.30;0.30;;;;;;;7.24;83.66;98068.47;5102155;22;20220;-81
2021/11/02 06:00:27;;;;;;;0.53;0.47;;;;;;;7.19;83.98;98072.88;5078187;28;20231;-82
2021/11/02 06:03:22;;;;;;;0.93;0.30;;;;;;;7.15;84.60;98071.75;5087981;28;20336;-81
2021/11/02 06:08:54;;;;;;;0.83;0.30;;;;;;;7.21;85.16;98076.13;5076490;23;20218;-81
2021/11/02 06:27:44;;;;;;;0.50;0.50;;;;;;;7.30;84.38;98091.50;5076930;23;20229;-81
2021/11/02 06:29:05;;;;;;;0.73;0.40;;;;;;;7.36;84.38;98095.91;5083565;23;20231;-82
2021/11/02 06:31:35;;;;;;;1.53;0.60;;;;;;;7.30;82.70;98085.38;5073787;28;20224;-81
2021/11/02 06:34:17;;;;;;;0.87;0.30;;;;;;;7.48;82.79;98087.88;5088071;28;20226;-81
2021/11/02 07:26:10;;;;;;;0.80;0.80;;;;;;;8.35;77.11;98113.22;5075197;22;20273;-83
2021/11/02 08:48:54;;;;;;;1.43;0.90;;;;;;;10.55;70.82;98125.31;5011540;28;20587;-82
2021/11/02 08:51:28;;;;;;;0.50;0.50;;;;;;;10.59;70.60;98120.28;5026282;28;20207;-83
2021/11/02 08:53:59;;;;;;;0.63;0.40;;;;;;;10.53;71.30;98115.94;5006874;28;20238;-82
2021/11/02 08:56:28;;;;;;;0.43;0.40;;;;;;;10.67;69.18;98110.97;5022511;28;20231;-82
2021/11/02 08:58:56;;;;;;;0.60;0.57;;;;;;;10.73;69.88;98117.97;5006065;28;20198;-82
2021/11/02 09:01:48;;;;;;;0.50;0.50;;;;;;;10.79;70.28;98122.28;5019298;28;20237;-81
2021/11/02 09:04:19;;;;;;;0.50;0.50;;;;;;;10.74;69.82;98109.66;5045131;28;20226;-82
2021/11/02 09:06:51;;;;;;;0.47;0.47;;;;;;;10.84;68.88;98127.69;5059060;28;20226;-82
2021/11/02 09:09:19;;;;;;;0.60;0.50;;;;;;;10.36;69.64;98118.72;5009399;28;20234;-82
2021/11/02 09:11:49;;;;;;;0.30;0.30;;;;;;;10.59;70.20;98131.78;5038277;28;20234;-82
2021/11/02 09:14:18;;;;;;;0.57;0.53;;;;;;;10.46;70.18;98131.41;5045012;28;20252;-82
2021/11/02 09:16:47;;;;;;;0.40;0.40;;;;;;;10.48;70.64;98134.66;5058974;28;20257;-82
2021/11/02 09:19:16;;;;;;;0.53;0.50;;;;;;;10.61;70.56;98142.25;5027090;28;20234;-80
2021/11/02 09:21:43;;;;;;;1.27;0.43;;;;;;;10.50;70.80;98149.38;5007410;28;20245;-82
2021/11/02 09:24:17;;;;;;;0.60;0.60;;;;;;;10.44;70.87;98149.59;5024181;28;20230;-82
2021/11/02 09:26:44;;;;;;;0.57;0.57;;;;;;;10.60;71.01;98149.47;4992246;28;20242;-83
2021/11/02 09:29:22;;;;;;;0.50;0.50;;;;;;;10.52;70.89;98135.75;5018734;28;20237;-81
2021/11/02 09:31:56;;;;;;;0.50;0.50;;;;;;;10.79;70.75;98154.44;5025130;28;20231;-82
2021/11/02 09:34:24;;;;;;;0.73;0.50;;;;;;;10.78;70.43;98144.81;5041511;28;20619;-81
2021/11/02 09:37:13;;;;;;;0.87;0.50;;;;;;;10.67;70.40;98157.31;5023475;28;20253;-82
2021/11/02 09:40:03;;;;;;;0.40;0.40;;;;;;;10.74;70.90;98155.22;5001952;28;20253;-83
2021/11/02 09:43:14;;;;;;;0.63;0.50;;;;;;;10.92;70.45;98162.84;5023197;28;20231;-82
2021/11/02 09:46:42;;;;;;;1.60;0.60;;;;;;;10.74;70.22;98160.56;5060280;23;20197;-81
2021/11/02 09:49:59;;;;;;;0.40;0.40;;;;;;;10.79;70.60;98157.94;5096284;23;20251;-82
2021/11/02 09:53:04;;;;;;;0.60;0.50;;;;;;;10.82;70.40;98151.25;5085105;28;20529;-80
2021/11/02 09:55:56;;;;;;;1.73;0.50;;;;;;;10.71;70.44;98149.56;5085115;28;20242;-81
2021/11/02 09:58:57;;;;;;;0.50;0.50;;;;;;;10.67;70.93;98154.63;5086808;28;20227;-81
2021/11/02 10:02:31;;;;;;;0.53;0.50;;;;;;;10.69;70.40;98149.00;5089705;28;20205;-81
2021/11/02 10:05:07;;;;;;;1.40;0.40;;;;;;;10.73;70.46;98148.22;5049304;28;20225;-81
2021/11/02 10:08:06;;;;;;;0.90;0.30;;;;;;;10.66;70.01;98141.47;5089720;28;20225;-81
2021/11/02 10:11:44;;;;;;;0.40;0.40;;;;;;;10.49;71.11;98128.25;5088438;28;20228;-81
2021/11/02 10:14:24;;;;;;;0.97;0.60;;;;;;;10.63;70.53;98123.25;5071750;28;20228;-81
2021/11/02 10:17:10;;;;;;;0.60;0.60;;;;;;;10.39;71.06;98128.94;5089710;28;20650;-80
2021/11/02 10:20:07;;;;;;;0.50;0.50;;;;;;;10.51;70.89;98126.91;5071890;28;20224;-80
2021/11/02 10:22:57;;;;;;;0.67;0.67;;;;;;;10.62;71.75;98121.63;5084190;28;20241;-80
2021/11/02 10:25:37;;;;;;;1.43;0.70;;;;;;;10.93;70.44;98134.19;5094622;23;20199;-81
2021/11/02 10:28:33;;;;;;;0.50;0.50;;;;;;;11.33;68.87;98134.44;5112109;28;20222;-80
2021/11/02 10:31:17;;;;;;;0.63;0.50;;;;;;;11.56;68.38;98132.41;5090195;28;20226;-80
2021/11/02 10:34:00;;;;;;;0.57;0.57;;;;;;;11.84;67.01;98142.72;5109349;28;20203;-81
2021/11/02 10:36:31;;;;;;;0.90;0.70;;;;;;;12.09;66.04;98142.78;5115580;22;20227;-80
2021/11/02 10:39:31;;;;;;;0.50;0.50;;;;;;;12.17;64.87;98149.53;5090116;22;20225;-80
2021/11/02 10:42:31;;;;;;;0.70;0.70;;;;;;;12.26;65.33;98147.94;5084296;23;20251;-80
2021/11/02 10:45:18;;;;;;;0.83;0.70;;;;;;;12.09;66.45;98145.47;5050728;28;20233;-82
2021/11/02 10:48:10;;;;;;;0.80;0.80;;;;;;;12.13;66.35;98145.78;5071847;23;20228;-81
2021/11/02 10:50:47;;;;;;;0.50;0.50;;;;;;;12.20;66.07;98133.69;5045782;28;20234;-81
2021/11/02 10:54:00;;;;;;;0.40;0.40;;;;;;;12.23;65.62;98138.53;5046443;28;20236;-80
2021/11/02 10:56:42;;;;;;;0.70;0.60;;;;;;;12.17;65.41;98134.22;5047660;28;20232;-81
2021/11/02 10:59:15;;;;;;;1.07;0.50;;;;;;;12.03;66.13;98135.00;5064124;28;20233;-81
2021/11/02 11:01:51;;;;;;;0.40;0.40;;;;;;;12.04;65.04;98132.03;5062945;28;20248;-81
2021/11/02 11:04:31;;;;;;;0.50;0.47;;;;;;;11.88;65.86;98133.09;5045607;28;20229;-81
2021/11/02 11:07:00;;;;;;;0.40;0.40;;;;;;;11.88;65.84;98128.53;5056319;23;20229;-83
2021/11/02 11:09:32;;;;;;;1.03;0.40;;;;;;;11.71;65.24;98130.56;5061640;22;20257;-80
2021/11/02 11:12:06;;;;;;;1.07;0.50;;;;;;;11.74;66.51;98138.13;5038640;28;20186;-80
2021/11/02 11:14:40;;;;;;;0.40;0.40;;;;;;;11.69;65.29;98130.03;5053859;28;20236;-81
2021/11/02 11:17:10;;;;;;;0.43;0.43;;;;;;;11.68;65.27;98128.41;5068721;28;20233;-81
2021/11/02 11:20:05;;;;;;;0.47;0.47;;;;;;;11.63;66.11;98131.06;5053529;28;20240;-80
2021/11/02 11:23:02;;;;;;;0.30;0.30;;;;;;;11.70;65.25;98126.28;5052467;23;20231;-82
2021/11/02 11:25:33;;;;;;;0.47;0.40;;;;;;;11.76;65.46;98113.69;5025810;28;20309;-81
2021/11/02 11:28:06;;;;;;;0.43;0.30;;;;;;;11.56;66.79;98111.75;5047917;23;20267;-80
2021/11/02 11:30:41;;;;;;;1.63;0.37;;;;;;;11.72;66.07;98109.91;5056991;23;20209;-80
2021/11/02 11:36:23;;;;;;;1.57;0.90;;;;;;;11.78;66.90;98120.44;5066701;28;20244;-80
2021/11/02 11:39:05;;;;;;;0.40;0.40;;;;;;;12.14;66.56;98109.78;5039123;28;20245;-80
2021/11/02 11:41:41;;;;;;;0.80;0.40;;;;;;;12.28;66.55;98105.50;5069163;22;20755;-80
2021/11/02 11:44:19;;;;;;;0.63;0.40;;;;;;;12.20;63.89;98114.09;5047791;28;20229;-80
2021/11/02 11:47:20;;;;;;;0.30;0.30;;;;;;;12.26;63.46;98116.53;5047362;28;20226;-79
2021/11/02 11:49:49;;;;;;;0.43;0.30;;;;;;;12.12;64.10;98110.06;5047304;28;20210;-80
2021/11/02 11:52:23;;;;;;;2.47;0.27;;;;;;;12.24;63.15;98118.66;5062603;28;20229;-80
2021/11/02 11:54:55;;;;;;;1.60;0.30;;;;;;;12.15;64.37;98122.94;5046501;28;20633;-80
2021/11/02 11:57:37;;;;;;;0.23;0.23;;;;;;;12.13;64.56;98116.25;5030054;28;20222;-80
2021/11/02 12:00:13;;;;;;;0.70;0.30;;;;;;;12.28;64.03;98111.69;5054311;23;20232;-80
2021/11/02 12:02:58;;;;;;;0.83;0.40;;;;;;;12.31;64.96;98107.66;4997793;28;20211;-79
2021/11/02 12:05:30;;;;;;;0.30;0.20;;;;;;;12.42;64.02;98098.53;5012995;28;20525;-79
2021/11/02 12:08:41;;;;;;;0.50;0.40;;;;;;;12.56;64.40;98106.84;5053428;23;20303;-78
2021/11/02 12:14:22;;;;;;;0.33;0.27;;;;;;;12.95;62.06;98104.41;5045908;28;20217;-82
2021/11/02 12:16:50;;;;;;;1.43;0.30;;;;;;;12.90;61.87;98110.59;5055400;23;20279;-80
2021/11/02 12:19:34;;;;;;;0.20;0.20;;;;;;;13.30;61.21;98107.03;5053291;28;20237;-80
2021/11/02 12:22:15;;;;;;;0.77;0.30;;;;;;;13.58;60.23;98110.97;5069986;28;20186;-81
2021/11/02 12:25:28;;;;;;;0.40;0.33;;;;;;;13.77;59.91;98121.91;5042334;28;20173;-81
2021/11/02 12:28:01;;;;;;;0.60;0.43;;;;;;;13.92;59.15;98114.59;5070103;23;20672;-80
2021/11/02 12:30:34;;;;;;;0.47;0.40;;;;;;;13.97;58.94;98119.13;5064475;23;20258;-79
2021/11/02 12:33:10;;;;;;;1.00;0.40;;;;;;;13.86;59.15;98110.31;5082440;23;20223;-79
2021/11/02 12:35:53;;;;;;;0.47;0.43;;;;;;;13.61;59.67;98118.50;5081553;23;20226;-79
2021/11/02 12:39:01;;;;;;;0.37;0.37;;;;;;;13.18;60.73;98118.09;5100844;23;20214;-80
2021/11/02 12:41:29;;;;;;;0.40;0.30;;;;;;;13.17;60.64;98118.38;5030368;28;20244;-79
2021/11/02 12:44:17;;;;;;;0.57;0.30;;;;;;;13.38;60.88;98119.94;5048129;28;20225;-80
2021/11/02 12:46:50;;;;;;;0.40;0.40;;;;;;;13.36;60.52;98129.34;5078360;23;20236;-79
2021/11/02 12:49:57;;;;;;;0.40;0.40;;;;;;;13.87;59.33;98116.50;5089053;28;20219;-79
2021/11/02 12:52:32;;;;;;;0.30;0.30;;;;;;;14.26;58.70;98132.72;5090484;28;20224;-80
2021/11/02 12:55:40;;;;;;;0.37;0.30;;;;;;;14.60;58.57;98130.06;5091184;28;20231;-79
2021/11/02 12:58:12;;;;;;;0.77;0.50;;;;;;;14.49;56.03;98119.38;5088633;28;20173;-79
2021/11/02 13:00:51;;;;;;;0.27;0.27;;;;;;;14.54;57.05;98113.13;5086831;28;20241;-79
2021/11/02 13:03:30;;;;;;;0.40;0.30;;;;;;;14.65;55.87;98116.56;5088894;28;20287;-82
2021/11/02 13:06:06;;;;;;;0.60;0.30;;;;;;;14.43;56.98;98107.00;5088115;28;20236;-80
2021/11/02 13:08:43;;;;;;;0.50;0.40;;;;;;;14.56;57.72;98116.34;5101034;28;20216;-80
2021/11/02 13:11:13;;;;;;;0.40;0.40;;;;;;;14.58;56.67;98113.38;5080441;28;20244;-83
2021/11/02 13:14:12;;;;;;;0.50;0.30;;;;;;;14.62;56.31;98120.63;5057237;28;20603;-82
2021/11/02 13:17:07;;;;;;;0.30;0.23;;;;;;;14.41;56.96;98122.69;5059784;28;20229;-84
2021/11/02 13:19:38;;;;;;;0.83;0.40;;;;;;;14.34;57.04;98121.34;5075614;28;20229;-80
2021/11/02 13:22:10;;;;;;;1.07;0.40;;;;;;;14.40;57.87;98107.59;5089899;28;20222;-80
2021/11/02 13:24:38;;;;;;;0.50;0.47;;;;;;;14.35;57.44;98107.59;5076148;28;20620;-85
2021/11/02 13:27:08;;;;;;;0.83;0.40;;;;;;;14.44;57.65;98115.91;5077810;28;20224;-85
2021/11/02 13:29:36;;;;;;;0.40;0.40;;;;;;;14.50;57.38;98104.81;5061371;28;20230;-86
2021/11/02 13:32:06;;;;;;;0.60;0.40;;;;;;;14.53;57.11;98106.13;5060802;28;20232;-82
2021/11/02 13:34:39;;;;;;;1.17;0.43;;;;;;;14.40;56.71;98117.56;5077871;28;20534;-80
2021/11/02 13:37:11;;;;;;;0.37;0.30;;;;;;;14.13;58.25;98119.88;5077592;28;20232;-87
2021/11/02 13:39:56;;;;;;;1.50;0.40;;;;;;;13.91;58.36;98115.66;5061206;28;20247;-79
2021/11/02 13:42:50;;;;;;;1.87;0.80;;;;;;;13.71;58.78;98114.97;5077846;28;20596;-81
2021/11/02 13:45:23;;;;;;;1.77;0.60;;;;;;;13.64;57.59;98099.91;5070100;28;20254;-79
2021/11/02 13:47:50;;;;;;;2.90;0.77;;;;;;;13.57;58.18;98120.97;5088049;28;20229;-80
2021/11/02 13:50:20;;;;;;;1.70;0.70;;;;;;;13.34;58.01;98118.88;5055937;28;20276;-79
2021/11/02 13:52:52;;;;;;;0.73;0.70;;;;;;;13.21;58.86;98131.00;5087898;28;20228;-79
2021/11/02 13:55:19;;;;;;;2.23;0.80;;;;;;;12.94;59.36;98122.41;5104570;28;20181;-79
2021/11/02 13:57:52;;;;;;;1.23;0.87;;;;;;;13.05;59.21;98145.53;5098414;22;20240;-78
2021/11/02 14:00:23;;;;;;;0.93;0.70;;;;;;;12.94;59.86;98127.00;5064297;23;20324;-79
2021/11/02 14:02:52;;;;;;;1.97;0.83;;;;;;;12.86;60.65;98138.28;5052703;28;20530;-79
2021/11/02 14:05:20;;;;;;;1.50;0.90;;;;;;;12.77;60.82;98136.16;5069401;28;20292;-81
2021/11/02 14:07:47;;;;;;;2.27;0.80;;;;;;;12.68;60.91;98132.41;5050677;28;20225;-79
2021/11/02 14:10:14;;;;;;;2.30;0.97;;;;;;;12.66;61.26;98134.53;5064967;28;20290;-80
2021/11/02 14:12:52;;;;;;;1.77;0.90;;;;;;;12.64;61.09;98144.75;5064173;28;20606;-78
2021/11/02 14:15:29;;;;;;;1.40;1.00;;;;;;;12.61;60.80;98141.78;5067533;28;20251;-80
2021/11/02 14:18:07;;;;;;;1.80;1.00;;;;;;;12.79;60.96;98146.63;5048598;28;20267;-79
2021/11/02 14:20:39;;;;;;;2.07;0.90;;;;;;;12.87;61.03;98145.28;5083513;28;20320;-79
2021/11/02 14:23:09;;;;;;;2.37;1.00;;;;;;;12.70;60.81;98146.34;5049373;28;20225;-79
2021/11/02 14:25:38;;;;;;;2.73;0.93;;;;;;;12.58;61.96;98150.38;5066783;28;20265;-80
2021/11/02 14:28:10;;;;;;;1.90;0.80;;;;;;;12.24;62.83;98148.19;5066400;28;20256;-78
2021/11/02 14:30:43;;;;;;;1.20;0.73;;;;;;;12.09;63.57;98153.53;5070433;28;20189;-80
2021/11/02 14:33:17;;;;;;;1.53;0.87;;;;;;;12.01;63.18;98148.69;5065236;28;20235;-79
2021/11/02 14:35:52;;;;;;;0.80;0.80;;;;;;;11.89;61.59;98151.63;5067068;28;20225;-80
2021/11/02 14:38:26;;;;;;;1.00;0.70;;;;;;;11.72;61.50;98145.63;5065583;28;20233;-79
2021/11/02 14:41:21;;;;;;;1.87;0.90;;;;;;;11.36;62.12;98141.97;5063189;28;20228;-79
2021/11/02 14:43:49;;;;;;;13.83;1.87;;;;;;;11.41;62.63;98139.31;5080507;28;20221;-80
2021/11/02 14:46:21;;;;;;;7.33;1.47;;;;;;;11.30;63.02;98153.72;5079328;28;20232;-79
2021/11/02 14:48:51;;;;;;;3.10;0.87;;;;;;;11.27;63.08;98153.44;5047992;28;20284;-79
2021/11/02 14:51:21;;;;;;;2.43;0.90;;;;;;;11.26;62.71;98157.97;5046223;28;20229;-79
2021/11/02 14:53:52;;;;;;;4.53;0.80;;;;;;;11.09;63.71;98161.91;5063816;28;20231;-80
2021/11/02 14:56:20;;;;;;;1.23;0.80;;;;;;;11.13;63.86;98161.13;5061747;28;20633;-80
2021/11/02 14:58:47;;;;;;;1.07;0.80;;;;;;;10.95;64.13;98172.25;5060928;28;20229;-78
2021/11/02 15:01:20;;;;;;;2.23;0.90;;;;;;;10.91;64.80;98174.66;5078363;28;20221;-81
2021/11/02 15:04:06;;;;;;;1.90;0.93;;;;;;;10.77;65.26;98167.28;5064596;28;20221;-80
2021/11/02 15:06:38;;;;;;;1.23;0.90;;;;;;;10.84;64.49;98173.22;5080358;28;20541;-80
2021/11/02 15:09:16;;;;;;;1.73;0.83;;;;;;;10.69;65.22;98186.50;5062955;28;20221;-80
2021/11/02 15:11:48;;;;;;;0.80;0.80;;;;;;;10.56;65.51;98171.66;5062165;28;20233;-81
2021/11/02 15:14:15;;;;;;;1.00;0.77;;;;;;;10.64;65.21;98178.44;5046061;28;20229;-81
2021/11/02 15:16:47;;;;;;;2.37;0.73;;;;;;;10.58;65.40;98186.44;5060727;28;20221;-80
2021/11/02 15:19:15;;;;;;;1.00;0.80;;;;;;;10.36;66.17;98182.19;5044257;28;20235;-80
2021/11/02 15:21:44;;;;;;;1.53;0.90;;;;;;;10.32;66.72;98197.94;5061378;28;20229;-81
2021/11/02 15:24:40;;;;;;;1.17;0.93;;;;;;;10.27;66.58;98194.41;5043507;28;20253;-79
2021/11/02 15:27:09;;;;;;;2.23;1.00;;;;;;;10.20;66.90;98205.31;5063797;28;20225;-79
2021/11/02 15:29:38;;;;;;;2.43;0.90;;;;;;;10.02;67.57;98206.44;5075463;28;20226;-82
2021/11/02 15:32:09;;;;;;;1.50;1.00;;;;;;;9.98;67.67;98218.69;5044138;28;20230;-78
2021/11/02 15:34:51;;;;;;;2.03;0.90;;;;;;;9.89;68.03;98211.34;5059250;28;20229;-81
2021/11/02 15:37:22;;;;;;;4.53;1.03;;;;;;;9.83;68.42;98210.47;5043727;28;20233;-80
2021/11/02 15:39:53;;;;;;;3.30;1.20;;;;;;;9.76;68.42;98214.38;5061937;28;20233;-81
2021/11/02 15:42:26;;;;;;;2.43;1.10;;;;;;;9.62;69.33;98227.31;5058911;28;20603;-80
2021/11/02 15:45:04;;;;;;;1.37;1.03;;;;;;;9.57;69.33;98225.38;5048300;28;20226;-78
2021/11/02 15:47:58;;;;;;;5.33;1.60;;;;;;;9.52;70.17;98241.34;5055454;28;20189;-78
2021/11/02 15:50:26;;;;;;;1.70;1.10;;;;;;;9.46;70.70;98252.22;5069545;28;20632;-78
2021/11/02 15:52:57;;;;;;;2.00;1.57;;;;;;;9.30;71.14;98232.47;5051201;28;20332;-79
2021/11/02 15:55:27;;;;;;;2.97;2.10;;;;;;;9.24;70.88;98242.28;5046410;28;20225;-79
2021/11/02 15:58:01;;;;;;;3.93;2.40;;;;;;;9.24;70.94;98241.47;5065225;28;20231;-79
2021/11/02 16:00:39;;;;;;;3.30;1.73;;;;;;;9.22;71.88;98238.25;5044608;28;20248;-81
2021/11/02 16:03:10;;;;;;;2.93;1.60;;;;;;;9.15;71.81;98234.91;5042392;28;20237;-79
2021/11/02 16:05:41;;;;;;;2.83;1.70;;;;;;;9.17;71.34;98233.63;5070819;28;20236;-79
2021/11/02 16:08:22;;;;;;;5.33;2.80;;;;;;;9.22;71.57;98248.94;5050804;28;20225;-79
2021/11/02 16:10:53;;;;;;;4.77;2.73;;;;;;;9.29;71.22;98245.03;5024099;28;20573;-79
2021/11/02 16:13:27;;;;;;;3.33;2.20;;;;;;;9.20;71.66;98243.00;5060049;28;20259;-80
2021/11/02 16:15:55;;;;;;;2.80;1.83;;;;;;;9.23;71.29;98248.69;5040594;28;20225;-79
2021/11/02 16:18:33;;;;;;;2.00;1.60;;;;;;;9.31;70.91;98254.66;5028337;28;20683;-80
2021/11/02 16:21:02;;;;;;;2.40;1.60;;;;;;;9.34;70.64;98254.97;5070696;28;20228;-79
2021/11/02 16:23:43;;;;;;;2.87;1.40;;;;;;;9.42;70.60;98254.59;5061901;28;20231;-79
2021/11/02 16:26:18;;;;;;;2.23;1.70;;;;;;;9.31;71.05;98252.81;5061839;28;20220;-81
2021/11/02 16:28:45;;;;;;;3.57;2.17;;;;;;;9.14;71.69;98247.50;5063712;28;20243;-80
2021/11/02 16:31:25;;;;;;;2.67;1.93;;;;;;;9.13;71.77;98259.22;5078961;28;20696;-79
2021/11/02 16:33:52;;;;;;;3.07;1.50;;;;;;;9.20;71.46;98257.19;5079523;28;20655;-79
2021/11/02 16:36:24;;;;;;;2.47;1.30;;;;;;;9.20;71.39;98259.03;5079546;28;20447;-81
2021/11/02 16:38:56;;;;;;;2.10;1.50;;;;;;;9.02;71.88;98251.28;5031224;28;20316;-79
2021/11/02 16:41:42;;;;;;;2.77;1.77;;;;;;;9.05;71.84;98267.63;5059542;28;20257;-79
2021/11/02 16:44:12;;;;;;;2.50;1.73;;;;;;;9.03;72.20;98264.41;5060954;28;20247;-79
2021/11/02 16:46:51;;;;;;;4.13;2.20;;;;;;;9.03;71.76;98271.59;5062655;28;20217;-79
2021/11/02 16:49:24;;;;;;;2.40;1.80;;;;;;;8.97;71.52;98262.69;5062534;28;20712;-80
2021/11/02 16:51:59;;;;;;;3.10;2.10;;;;;;;9.08;71.73;98280.50;5060318;28;20585;-79
2021/11/02 16:54:35;;;;;;;2.33;1.87;;;;;;;8.95;71.89;98285.38;5038943;28;20238;-79
2021/11/02 16:57:16;;;;;;;3.80;1.37;;;;;;;9.15;71.40;98299.84;5048779;28;20229;-80
2021/11/02 16:59:55;;;;;;;1.50;1.30;;;;;;;9.01;71.72;98284.38;5028533;28;20233;-79
2021/11/02 17:02:39;;;;;;;1.43;1.20;;;;;;;8.87;72.13;98291.09;5038254;28;20229;-78
2021/11/02 17:05:18;;;;;;;3.20;1.57;;;;;;;8.84;72.20;98290.53;5007189;28;20230;-79
2021/11/02 17:07:47;;;;;;;2.70;1.67;;;;;;;8.78;72.06;98298.69;5038626;28;20236;-78
2021/11/02 17:10:20;;;;;;;2.13;1.50;;;;;;;8.68;72.95;98304.66;5019288;28;20230;-78
2021/11/02 17:12:50;;;;;;;2.43;1.80;;;;;;;8.54;73.40;98297.97;5038953;28;20260;-82
2021/11/02 17:15:48;;;;;;;4.13;3.37;;;;;;;8.51;74.13;98305.66;5021302;28;20276;-80
2021/11/02 17:18:23;;;;;;;3.10;2.13;;;;;;;8.37;75.00;98302.44;4992734;28;20590;-78
2021/11/02 17:21:04;;;;;;;2.60;2.10;;;;;;;8.34;75.04;98303.75;5038839;28;20260;-79